sensor_id;sensor_type;location;lat;lon;timestamp;temperature;humidity
8994;DHT22;4532;50.886;4.700;2023-02-21T00:02:27;10.70;99.90
8994;DHT22;4532;50.886;4.700;2023-02-21T00:05:13;10.70;99.90
8994;DHT22;4532;50.886;4.700;2023-02-21T00:07:59;10.60;99.90
8994;DHT22;4532;50.886;4.700;2023-02-21T00:10:45;10.60;99.90
8994;DHT22;4532;50.886;4.700;2023-02-21T00:13:30;10.60;99.90
8994;DHT22;4532;50.886;4.700;2023-02-21T00:16:16;10.60;99.90
8994;DHT22;4532;50.886;4.700;2023-02-21T00:19:03;10.60;99.90
8994;DHT22;4532;50.886;4.700;2023-02-21T00:21:51;10.60;99.90
8994;DHT22;4532;50.886;4.700;2023-02-21T00:24:37;10.60;99.90
8994;DHT22;4532;50.886;4.700;2023-02-21T00:27:25;10.60;99.90
8994;DHT22;4532;50.886;4.700;2023-02-21T00:30:12;10.50;99.90
8994;DHT22;4532;50.886;4.700;2023-02-21T00:32:58;10.50;99.90
8994;DHT22;4532;50.886;4.700;2023-02-21T00:35:47;10.50;99.90
8994;DHT22;4532;50.886;4.700;2023-02-21T00:38:36;10.50;99.90
8994;DHT22;4532;50.886;4.700;2023-02-21T00:41:21;10.50;99.90
8994;DHT22;4532;50.886;4.700;2023-02-21T00:44:07;10.50;99.90
8994;DHT22;4532;50.886;4.700;2023-02-21T00:46:57;10.50;99.90
8994;DHT22;4532;50.886;4.700;2023-02-21T00:49:45;10.50;99.90
8994;DHT22;4532;50.886;4.700;2023-02-21T00:52:31;10.50;99.90
8994;DHT22;4532;50.886;4.700;2023-02-21T00:55:19;10.50;99.90
8994;DHT22;4532;50.886;4.700;2023-02-21T00:58:04;10.50;99.90
8994;DHT22;4532;50.886;4.700;2023-02-21T01:00:52;10.50;99.90
8994;DHT22;4532;50.886;4.700;2023-02-21T01:03:41;10.40;99.90
8994;DHT22;4532;50.886;4.700;2023-02-21T01:06:32;10.50;99.90
8994;DHT22;4532;50.886;4.700;2023-02-21T01:09:20;10.40;99.90
8994;DHT22;4532;50.886;4.700;2023-02-21T01:12:06;10.40;99.90
8994;DHT22;4532;50.886;4.700;2023-02-21T01:14:54;10.40;99.90
8994;DHT22;4532;50.886;4.700;2023-02-21T01:17:40;10.40;99.90
8994;DHT22;4532;50.886;4.700;2023-02-21T01:20:26;10.40;99.90
8994;DHT22;4532;50.886;4.700;2023-02-21T01:23:11;10.40;99.90
8994;DHT22;4532;50.886;4.700;2023-02-21T01:25:57;10.40;99.90
8994;DHT22;4532;50.886;4.700;2023-02-21T01:28:43;10.40;99.90
8994;DHT22;4532;50.886;4.700;2023-02-21T01:31:31;10.40;99.90
8994;DHT22;4532;50.886;4.700;2023-02-21T01:34:16;10.40;99.90
8994;DHT22;4532;50.886;4.700;2023-02-21T01:37:04;10.40;99.90
8994;DHT22;4532;50.886;4.700;2023-02-21T01:39:50;10.40;99.90
8994;DHT22;4532;50.886;4.700;2023-02-21T01:42:36;10.40;99.90
8994;DHT22;4532;50.886;4.700;2023-02-21T01:48:12;10.40;99.90
8994;DHT22;4532;50.886;4.700;2023-02-21T01:50:59;10.40;99.90
8994;DHT22;4532;50.886;4.700;2023-02-21T01:53:48;10.40;99.90
8994;DHT22;4532;50.886;4.700;2023-02-21T01:56:34;10.30;99.90
8994;DHT22;4532;50.886;4.700;2023-02-21T01:59:23;10.30;99.90
8994;DHT22;4532;50.886;4.700;2023-02-21T02:02:21;10.40;99.90
8994;DHT22;4532;50.886;4.700;2023-02-21T02:05:09;10.30;99.90
8994;DHT22;4532;50.886;4.700;2023-02-21T02:07:58;10.30;99.90
8994;DHT22;4532;50.886;4.700;2023-02-21T02:10:48;10.30;99.90
8994;DHT22;4532;50.886;4.700;2023-02-21T02:16:52;10.30;99.90
8994;DHT22;4532;50.886;4.700;2023-02-21T02:36:17;10.20;99.90
8994;DHT22;4532;50.886;4.700;2023-02-21T02:39:04;10.20;99.90
8994;DHT22;4532;50.886;4.700;2023-02-21T02:44:38;10.10;99.90
8994;DHT22;4532;50.886;4.700;2023-02-21T02:47:13;10.10;99.90
8994;DHT22;4532;50.886;4.700;2023-02-21T02:49:46;10.10;99.90
8994;DHT22;4532;50.886;4.700;2023-02-21T02:52:16;10.10;99.90
8994;DHT22;4532;50.886;4.700;2023-02-21T02:55:05;10.10;99.90
8994;DHT22;4532;50.886;4.700;2023-02-21T02:57:49;10.10;99.90
8994;DHT22;4532;50.886;4.700;2023-02-21T03:00:17;10.10;99.90
8994;DHT22;4532;50.886;4.700;2023-02-21T03:11:08;10.10;99.90
8994;DHT22;4532;50.886;4.700;2023-02-21T03:13:46;10.00;99.90
8994;DHT22;4532;50.886;4.700;2023-02-21T03:16:59;10.00;99.90
8994;DHT22;4532;50.886;4.700;2023-02-21T03:19:19;10.00;99.90
8994;DHT22;4532;50.886;4.700;2023-02-21T03:22:13;10.00;99.90
8994;DHT22;4532;50.886;4.700;2023-02-21T03:24:45;10.10;99.90
8994;DHT22;4532;50.886;4.700;2023-02-21T03:27:14;10.10;99.90
8994;DHT22;4532;50.886;4.700;2023-02-21T03:29:45;10.10;99.90
8994;DHT22;4532;50.886;4.700;2023-02-21T03:34:46;10.00;99.90
8994;DHT22;4532;50.886;4.700;2023-02-21T03:39:57;10.10;99.90
8994;DHT22;4532;50.886;4.700;2023-02-21T03:42:24;10.10;99.90
8994;DHT22;4532;50.886;4.700;2023-02-21T03:44:51;10.10;99.90
8994;DHT22;4532;50.886;4.700;2023-02-21T03:47:18;10.10;99.90
8994;DHT22;4532;50.886;4.700;2023-02-21T03:49:46;10.10;99.90
8994;DHT22;4532;50.886;4.700;2023-02-21T03:52:17;10.10;99.90
8994;DHT22;4532;50.886;4.700;2023-02-21T03:54:45;10.10;99.90
8994;DHT22;4532;50.886;4.700;2023-02-21T03:57:14;10.00;99.90
8994;DHT22;4532;50.886;4.700;2023-02-21T03:59:44;10.00;99.90
8994;DHT22;4532;50.886;4.700;2023-02-21T04:02:13;10.00;99.90
8994;DHT22;4532;50.886;4.700;2023-02-21T04:04:45;10.00;99.90
8994;DHT22;4532;50.886;4.700;2023-02-21T04:07:16;10.00;99.90
8994;DHT22;4532;50.886;4.700;2023-02-21T04:09:43;10.00;99.90
8994;DHT22;4532;50.886;4.700;2023-02-21T04:12:13;10.00;99.90
8994;DHT22;4532;50.886;4.700;2023-02-21T04:14:41;10.00;99.90
8994;DHT22;4532;50.886;4.700;2023-02-21T04:17:08;10.00;99.90
8994;DHT22;4532;50.886;4.700;2023-02-21T04:19:35;9.90;99.90
8994;DHT22;4532;50.886;4.700;2023-02-21T04:22:02;9.90;99.90
8994;DHT22;4532;50.886;4.700;2023-02-21T04:24:31;9.90;99.90
8994;DHT22;4532;50.886;4.700;2023-02-21T04:27:01;9.90;99.90
8994;DHT22;4532;50.886;4.700;2023-02-21T04:29:29;9.90;99.90
8994;DHT22;4532;50.886;4.700;2023-02-21T04:31:56;9.90;99.90
8994;DHT22;4532;50.886;4.700;2023-02-21T04:34:23;9.90;99.90
8994;DHT22;4532;50.886;4.700;2023-02-21T04:36:53;9.90;99.90
8994;DHT22;4532;50.886;4.700;2023-02-21T04:39:22;9.90;99.90
8994;DHT22;4532;50.886;4.700;2023-02-21T04:41:49;9.90;99.90
8994;DHT22;4532;50.886;4.700;2023-02-21T04:44:16;9.80;99.90
8994;DHT22;4532;50.886;4.700;2023-02-21T04:46:46;9.80;99.90
8994;DHT22;4532;50.886;4.700;2023-02-21T04:49:13;9.80;99.90
8994;DHT22;4532;50.886;4.700;2023-02-21T04:51:41;9.80;99.90
8994;DHT22;4532;50.886;4.700;2023-02-21T04:54:08;9.70;99.90
8994;DHT22;4532;50.886;4.700;2023-02-21T04:56:37;9.70;99.90
8994;DHT22;4532;50.886;4.700;2023-02-21T04:59:05;9.70;99.90
8994;DHT22;4532;50.886;4.700;2023-02-21T05:01:35;9.70;99.90
8994;DHT22;4532;50.886;4.700;2023-02-21T05:04:02;9.80;99.90
8994;DHT22;4532;50.886;4.700;2023-02-21T05:06:32;9.70;99.90
8994;DHT22;4532;50.886;4.700;2023-02-21T05:09:02;9.70;99.90
8994;DHT22;4532;50.886;4.700;2023-02-21T05:11:32;9.70;99.90
8994;DHT22;4532;50.886;4.700;2023-02-21T05:14:05;9.70;99.90
8994;DHT22;4532;50.886;4.700;2023-02-21T05:16:32;9.70;99.90
8994;DHT22;4532;50.886;4.700;2023-02-21T05:19:05;9.70;99.90
8994;DHT22;4532;50.886;4.700;2023-02-21T05:21:34;9.70;99.90
8994;DHT22;4532;50.886;4.700;2023-02-21T05:24:06;9.70;99.90
8994;DHT22;4532;50.886;4.700;2023-02-21T05:26:37;9.70;99.90
8994;DHT22;4532;50.886;4.700;2023-02-21T05:29:06;9.70;99.90
8994;DHT22;4532;50.886;4.700;2023-02-21T05:31:36;9.70;99.90
8994;DHT22;4532;50.886;4.700;2023-02-21T05:34:03;9.60;99.90
8994;DHT22;4532;50.886;4.700;2023-02-21T05:36:30;9.60;99.90
8994;DHT22;4532;50.886;4.700;2023-02-21T05:38:58;9.60;99.90
8994;DHT22;4532;50.886;4.700;2023-02-21T05:41:25;9.60;99.90
8994;DHT22;4532;50.886;4.700;2023-02-21T05:43:55;9.60;99.90
8994;DHT22;4532;50.886;4.700;2023-02-21T05:46:34;9.60;99.90
8994;DHT22;4532;50.886;4.700;2023-02-21T05:49:04;9.60;99.90
8994;DHT22;4532;50.886;4.700;2023-02-21T05:51:41;9.60;99.90
8994;DHT22;4532;50.886;4.700;2023-02-21T05:54:17;9.60;99.90
8994;DHT22;4532;50.886;4.700;2023-02-21T05:56:51;9.70;99.90
8994;DHT22;4532;50.886;4.700;2023-02-21T05:59:21;9.60;99.90
8994;DHT22;4532;50.886;4.700;2023-02-21T06:01:51;9.60;99.90
8994;DHT22;4532;50.886;4.700;2023-02-21T06:04:18;9.60;99.90
8994;DHT22;4532;50.886;4.700;2023-02-21T06:06:45;9.70;99.90
8994;DHT22;4532;50.886;4.700;2023-02-21T06:09:13;9.70;99.90
8994;DHT22;4532;50.886;4.700;2023-02-21T06:11:40;9.70;99.90
8994;DHT22;4532;50.886;4.700;2023-02-21T06:14:17;9.70;99.90
8994;DHT22;4532;50.886;4.700;2023-02-21T06:16:44;9.70;99.90
8994;DHT22;4532;50.886;4.700;2023-02-21T06:19:17;9.70;99.90
8994;DHT22;4532;50.886;4.700;2023-02-21T06:21:47;9.60;99.90
8994;DHT22;4532;50.886;4.700;2023-02-21T06:24:15;9.70;99.90
8994;DHT22;4532;50.886;4.700;2023-02-21T06:26:44;9.70;99.90
8994;DHT22;4532;50.886;4.700;2023-02-21T06:29:14;9.70;99.90
8994;DHT22;4532;50.886;4.700;2023-02-21T06:31:44;9.70;99.90
8994;DHT22;4532;50.886;4.700;2023-02-21T06:34:11;9.60;99.90
8994;DHT22;4532;50.886;4.700;2023-02-21T06:36:38;9.60;99.90
8994;DHT22;4532;50.886;4.700;2023-02-21T06:39:13;9.60;99.90
8994;DHT22;4532;50.886;4.700;2023-02-21T06:41:41;9.60;99.90
8994;DHT22;4532;50.886;4.700;2023-02-21T06:44:08;9.60;99.90
8994;DHT22;4532;50.886;4.700;2023-02-21T06:46:37;9.60;99.90
8994;DHT22;4532;50.886;4.700;2023-02-21T06:49:07;9.60;99.90
8994;DHT22;4532;50.886;4.700;2023-02-21T06:51:40;9.60;99.90
8994;DHT22;4532;50.886;4.700;2023-02-21T06:54:08;9.70;99.90
8994;DHT22;4532;50.886;4.700;2023-02-21T06:56:36;9.70;99.90
8994;DHT22;4532;50.886;4.700;2023-02-21T06:59:06;9.70;99.90
8994;DHT22;4532;50.886;4.700;2023-02-21T07:01:38;9.70;99.90
8994;DHT22;4532;50.886;4.700;2023-02-21T07:04:08;9.70;99.90
8994;DHT22;4532;50.886;4.700;2023-02-21T07:06:35;9.70;99.90
8994;DHT22;4532;50.886;4.700;2023-02-21T07:09:02;9.70;99.90
8994;DHT22;4532;50.886;4.700;2023-02-21T07:11:33;9.70;99.90
8994;DHT22;4532;50.886;4.700;2023-02-21T07:14:01;9.70;99.90
8994;DHT22;4532;50.886;4.700;2023-02-21T07:16:28;9.70;99.90
8994;DHT22;4532;50.886;4.700;2023-02-21T07:18:55;9.70;99.90
8994;DHT22;4532;50.886;4.700;2023-02-21T07:21:24;9.70;99.90
8994;DHT22;4532;50.886;4.700;2023-02-21T07:23:56;9.70;99.90
8994;DHT22;4532;50.886;4.700;2023-02-21T07:26:26;9.70;99.90
8994;DHT22;4532;50.886;4.700;2023-02-21T07:28:53;9.70;99.90
8994;DHT22;4532;50.886;4.700;2023-02-21T07:31:20;9.70;99.90
8994;DHT22;4532;50.886;4.700;2023-02-21T07:33:48;9.70;99.90
8994;DHT22;4532;50.886;4.700;2023-02-21T07:36:15;9.70;99.90
8994;DHT22;4532;50.886;4.700;2023-02-21T07:38:45;9.70;99.90
8994;DHT22;4532;50.886;4.700;2023-02-21T07:41:13;9.70;99.90
8994;DHT22;4532;50.886;4.700;2023-02-21T07:43:41;9.70;99.90
8994;DHT22;4532;50.886;4.700;2023-02-21T07:46:10;9.70;99.90
8994;DHT22;4532;50.886;4.700;2023-02-21T07:48:38;9.70;99.90
8994;DHT22;4532;50.886;4.700;2023-02-21T07:51:07;9.70;99.90
8994;DHT22;4532;50.886;4.700;2023-02-21T07:53:34;9.70;99.90
8994;DHT22;4532;50.886;4.700;2023-02-21T07:56:04;9.70;99.90
8994;DHT22;4532;50.886;4.700;2023-02-21T07:58:36;9.70;99.90
8994;DHT22;4532;50.886;4.700;2023-02-21T08:01:06;9.70;99.90
8994;DHT22;4532;50.886;4.700;2023-02-21T08:03:36;9.70;99.90
8994;DHT22;4532;50.886;4.700;2023-02-21T08:06:08;9.60;99.90
8994;DHT22;4532;50.886;4.700;2023-02-21T08:08:36;9.60;99.90
8994;DHT22;4532;50.886;4.700;2023-02-21T08:11:03;9.70;99.90
8994;DHT22;4532;50.886;4.700;2023-02-21T08:13:32;9.70;99.90
8994;DHT22;4532;50.886;4.700;2023-02-21T08:16:04;9.70;99.90
8994;DHT22;4532;50.886;4.700;2023-02-21T08:18:34;9.70;99.90
8994;DHT22;4532;50.886;4.700;2023-02-21T08:21:08;9.70;99.90
8994;DHT22;4532;50.886;4.700;2023-02-21T08:23:38;9.70;99.90
8994;DHT22;4532;50.886;4.700;2023-02-21T08:26:05;9.60;99.90
8994;DHT22;4532;50.886;4.700;2023-02-21T08:28:32;9.70;99.90
8994;DHT22;4532;50.886;4.700;2023-02-21T08:31:02;9.70;99.90
8994;DHT22;4532;50.886;4.700;2023-02-21T08:33:29;9.70;99.90
8994;DHT22;4532;50.886;4.700;2023-02-21T08:35:57;9.70;99.90
8994;DHT22;4532;50.886;4.700;2023-02-21T08:38:29;9.80;99.90
8994;DHT22;4532;50.886;4.700;2023-02-21T08:40:58;9.80;99.90
8994;DHT22;4532;50.886;4.700;2023-02-21T08:43:31;9.70;99.90
8994;DHT22;4532;50.886;4.700;2023-02-21T08:46:01;9.70;99.90
8994;DHT22;4532;50.886;4.700;2023-02-21T08:48:28;9.80;99.90
8994;DHT22;4532;50.886;4.700;2023-02-21T08:51:02;9.80;99.90
8994;DHT22;4532;50.886;4.700;2023-02-21T08:53:32;9.80;99.90
8994;DHT22;4532;50.886;4.700;2023-02-21T08:55:59;9.90;99.90
8994;DHT22;4532;50.886;4.700;2023-02-21T08:58:29;9.90;99.90
8994;DHT22;4532;50.886;4.700;2023-02-21T09:00:56;9.90;99.90
8994;DHT22;4532;50.886;4.700;2023-02-21T09:03:25;9.90;99.90
8994;DHT22;4532;50.886;4.700;2023-02-21T09:05:55;9.90;99.90
8994;DHT22;4532;50.886;4.700;2023-02-21T09:08:22;9.90;99.90
8994;DHT22;4532;50.886;4.700;2023-02-21T09:10:52;9.90;99.90
8994;DHT22;4532;50.886;4.700;2023-02-21T09:13:21;9.90;99.90
8994;DHT22;4532;50.886;4.700;2023-02-21T09:15:53;9.90;99.90
8994;DHT22;4532;50.886;4.700;2023-02-21T09:18:21;9.90;99.90
8994;DHT22;4532;50.886;4.700;2023-02-21T09:20:51;9.90;99.90
8994;DHT22;4532;50.886;4.700;2023-02-21T09:23:24;9.90;99.90
8994;DHT22;4532;50.886;4.700;2023-02-21T09:25:54;9.90;99.90
8994;DHT22;4532;50.886;4.700;2023-02-21T09:28:26;9.90;99.90
8994;DHT22;4532;50.886;4.700;2023-02-21T09:30:55;10.00;99.90
8994;DHT22;4532;50.886;4.700;2023-02-21T09:33:27;10.00;99.90
8994;DHT22;4532;50.886;4.700;2023-02-21T09:35:56;10.00;99.90
8994;DHT22;4532;50.886;4.700;2023-02-21T09:38:25;10.10;99.90
8994;DHT22;4532;50.886;4.700;2023-02-21T09:40:59;10.10;99.90
8994;DHT22;4532;50.886;4.700;2023-02-21T09:43:37;10.10;99.90
8994;DHT22;4532;50.886;4.700;2023-02-21T09:46:24;10.10;99.90
8994;DHT22;4532;50.886;4.700;2023-02-21T09:48:57;10.20;99.90
8994;DHT22;4532;50.886;4.700;2023-02-21T09:51:25;10.20;99.90
8994;DHT22;4532;50.886;4.700;2023-02-21T09:53:55;10.20;99.90
8994;DHT22;4532;50.886;4.700;2023-02-21T09:56:35;10.20;99.90
8994;DHT22;4532;50.886;4.700;2023-02-21T09:59:13;10.20;99.90
8994;DHT22;4532;50.886;4.700;2023-02-21T10:01:52;10.20;99.90
8994;DHT22;4532;50.886;4.700;2023-02-21T10:12:24;10.30;99.90
8994;DHT22;4532;50.886;4.700;2023-02-21T10:20:48;10.40;99.90
8994;DHT22;4532;50.886;4.700;2023-02-21T10:26:09;10.40;99.90
8994;DHT22;4532;50.886;4.700;2023-02-21T10:28:37;10.50;99.90
8994;DHT22;4532;50.886;4.700;2023-02-21T10:31:22;10.50;99.90
8994;DHT22;4532;50.886;4.700;2023-02-21T10:33:55;10.60;99.90
8994;DHT22;4532;50.886;4.700;2023-02-21T10:36:22;10.60;99.90
8994;DHT22;4532;50.886;4.700;2023-02-21T10:39:13;10.50;99.90
8994;DHT22;4532;50.886;4.700;2023-02-21T10:41:43;10.50;99.90
8994;DHT22;4532;50.886;4.700;2023-02-21T10:44:19;10.50;99.90
8994;DHT22;4532;50.886;4.700;2023-02-21T10:50:09;10.50;99.90
8994;DHT22;4532;50.886;4.700;2023-02-21T10:52:47;10.40;99.90
8994;DHT22;4532;50.886;4.700;2023-02-21T10:55:18;10.50;99.90
8994;DHT22;4532;50.886;4.700;2023-02-21T10:58:16;10.50;99.90
8994;DHT22;4532;50.886;4.700;2023-02-21T11:00:44;10.50;99.90
8994;DHT22;4532;50.886;4.700;2023-02-21T11:03:23;10.60;99.90
8994;DHT22;4532;50.886;4.700;2023-02-21T11:05:55;10.50;99.90
8994;DHT22;4532;50.886;4.700;2023-02-21T11:08:42;10.50;99.90
8994;DHT22;4532;50.886;4.700;2023-02-21T11:11:14;10.50;99.90
8994;DHT22;4532;50.886;4.700;2023-02-21T11:13:41;10.40;99.90
8994;DHT22;4532;50.886;4.700;2023-02-21T11:16:22;10.40;99.90
8994;DHT22;4532;50.886;4.700;2023-02-21T11:19:19;10.40;99.90
8994;DHT22;4532;50.886;4.700;2023-02-21T11:21:54;10.50;99.90
8994;DHT22;4532;50.886;4.700;2023-02-21T11:24:31;10.50;99.90
8994;DHT22;4532;50.886;4.700;2023-02-21T11:26:58;10.50;99.90
8994;DHT22;4532;50.886;4.700;2023-02-21T11:29:29;10.40;99.90
8994;DHT22;4532;50.886;4.700;2023-02-21T11:32:10;10.50;99.90
8994;DHT22;4532;50.886;4.700;2023-02-21T11:34:43;10.50;99.90
8994;DHT22;4532;50.886;4.700;2023-02-21T11:37:14;10.50;99.90
8994;DHT22;4532;50.886;4.700;2023-02-21T11:39:50;10.60;99.90
8994;DHT22;4532;50.886;4.700;2023-02-21T11:45:10;10.60;99.90
8994;DHT22;4532;50.886;4.700;2023-02-21T11:47:45;10.70;99.90
8994;DHT22;4532;50.886;4.700;2023-02-21T11:50:23;10.70;99.90
8994;DHT22;4532;50.886;4.700;2023-02-21T11:53:06;10.80;99.90
8994;DHT22;4532;50.886;4.700;2023-02-21T11:55:38;10.80;99.90
8994;DHT22;4532;50.886;4.700;2023-02-21T11:59:01;10.80;99.90
8994;DHT22;4532;50.886;4.700;2023-02-21T12:04:47;10.90;99.90
8994;DHT22;4532;50.886;4.700;2023-02-21T12:07:25;10.90;99.90
8994;DHT22;4532;50.886;4.700;2023-02-21T12:09:57;10.90;99.90
8994;DHT22;4532;50.886;4.700;2023-02-21T12:12:50;10.90;99.90
8994;DHT22;4532;50.886;4.700;2023-02-21T12:32:50;10.90;99.90
8994;DHT22;4532;50.886;4.700;2023-02-21T12:38:30;11.00;99.90
8994;DHT22;4532;50.886;4.700;2023-02-21T12:44:12;11.10;99.90
8994;DHT22;4532;50.886;4.700;2023-02-21T12:52:05;11.20;99.90
8994;DHT22;4532;50.886;4.700;2023-02-21T12:57:33;11.20;99.90
8994;DHT22;4532;50.886;4.700;2023-02-21T13:00:17;11.30;99.90
8994;DHT22;4532;50.886;4.700;2023-02-21T13:05:39;11.30;99.90
8994;DHT22;4532;50.886;4.700;2023-02-21T13:08:20;11.40;99.90
8994;DHT22;4532;50.886;4.700;2023-02-21T13:10:57;11.40;99.90
8994;DHT22;4532;50.886;4.700;2023-02-21T13:13:32;11.40;99.90
8994;DHT22;4532;50.886;4.700;2023-02-21T13:16:05;11.50;99.90
8994;DHT22;4532;50.886;4.700;2023-02-21T13:18:39;11.50;99.90
8994;DHT22;4532;50.886;4.700;2023-02-21T13:21:23;11.60;99.90
8994;DHT22;4532;50.886;4.700;2023-02-21T13:23:52;11.60;99.90
8994;DHT22;4532;50.886;4.700;2023-02-21T13:29:28;11.70;99.90
8994;DHT22;4532;50.886;4.700;2023-02-21T13:32:09;11.70;99.90
8994;DHT22;4532;50.886;4.700;2023-02-21T13:34:46;11.70;99.90
8994;DHT22;4532;50.886;4.700;2023-02-21T13:37:26;11.70;99.90
8994;DHT22;4532;50.886;4.700;2023-02-21T13:39:57;11.80;99.90
8994;DHT22;4532;50.886;4.700;2023-02-21T13:42:28;11.80;99.90
8994;DHT22;4532;50.886;4.700;2023-02-21T13:45:27;11.90;99.90
8994;DHT22;4532;50.886;4.700;2023-02-21T13:55:36;12.00;99.90
8994;DHT22;4532;50.886;4.700;2023-02-21T14:13:39;12.00;99.90
8994;DHT22;4532;50.886;4.700;2023-02-21T14:18:54;12.00;99.90
8994;DHT22;4532;50.886;4.700;2023-02-21T14:21:35;12.10;99.90
8994;DHT22;4532;50.886;4.700;2023-02-21T14:29:13;12.10;99.90
8994;DHT22;4532;50.886;4.700;2023-02-21T14:46:01;12.20;99.90
8994;DHT22;4532;50.886;4.700;2023-02-21T14:53:55;12.20;99.90
8994;DHT22;4532;50.886;4.700;2023-02-21T15:02:29;12.20;99.90
8994;DHT22;4532;50.886;4.700;2023-02-21T15:05:34;12.20;99.90
8994;DHT22;4532;50.886;4.700;2023-02-21T15:08:24;12.20;99.90
8994;DHT22;4532;50.886;4.700;2023-02-21T15:10:57;12.20;99.90
8994;DHT22;4532;50.886;4.700;2023-02-21T15:13:32;12.20;99.90
8994;DHT22;4532;50.886;4.700;2023-02-21T15:16:05;12.20;99.90
8994;DHT22;4532;50.886;4.700;2023-02-21T15:18:57;12.20;99.90
8994;DHT22;4532;50.886;4.700;2023-02-21T15:21:28;12.20;99.90
8994;DHT22;4532;50.886;4.700;2023-02-21T15:24:01;12.20;99.90
8994;DHT22;4532;50.886;4.700;2023-02-21T15:26:30;12.20;99.90
8994;DHT22;4532;50.886;4.700;2023-02-21T15:31:54;12.10;99.90
8994;DHT22;4532;50.886;4.700;2023-02-21T15:34:36;12.10;99.90
8994;DHT22;4532;50.886;4.700;2023-02-21T15:37:20;12.10;99.90
8994;DHT22;4532;50.886;4.700;2023-02-21T15:40:33;12.10;99.90
8994;DHT22;4532;50.886;4.700;2023-02-21T15:42:41;12.00;99.90
8994;DHT22;4532;50.886;4.700;2023-02-21T15:45:18;12.00;99.90
8994;DHT22;4532;50.886;4.700;2023-02-21T15:47:50;12.00;99.90
8994;DHT22;4532;50.886;4.700;2023-02-21T15:50:39;12.00;99.90
8994;DHT22;4532;50.886;4.700;2023-02-21T15:55:49;12.00;99.90
8994;DHT22;4532;50.886;4.700;2023-02-21T16:01:05;12.10;99.90
8994;DHT22;4532;50.886;4.700;2023-02-21T16:03:39;12.10;99.90
8994;DHT22;4532;50.886;4.700;2023-02-21T16:06:31;12.10;99.90
8994;DHT22;4532;50.886;4.700;2023-02-21T16:14:38;12.00;99.90
8994;DHT22;4532;50.886;4.700;2023-02-21T16:19:44;12.00;99.90
8994;DHT22;4532;50.886;4.700;2023-02-21T16:24:44;11.90;99.90
8994;DHT22;4532;50.886;4.700;2023-02-21T16:27:14;11.90;99.90
8994;DHT22;4532;50.886;4.700;2023-02-21T16:29:42;11.90;99.90
8994;DHT22;4532;50.886;4.700;2023-02-21T16:32:19;11.90;99.90
8994;DHT22;4532;50.886;4.700;2023-02-21T16:34:52;11.90;99.90
8994;DHT22;4532;50.886;4.700;2023-02-21T16:37:22;11.90;99.90
8994;DHT22;4532;50.886;4.700;2023-02-21T16:39:51;11.90;99.90
8994;DHT22;4532;50.886;4.700;2023-02-21T16:42:21;11.90;99.90
8994;DHT22;4532;50.886;4.700;2023-02-21T16:44:53;11.90;99.90
8994;DHT22;4532;50.886;4.700;2023-02-21T16:47:20;11.90;99.90
8994;DHT22;4532;50.886;4.700;2023-02-21T16:49:48;11.80;99.90
8994;DHT22;4532;50.886;4.700;2023-02-21T16:52:18;11.80;99.90
8994;DHT22;4532;50.886;4.700;2023-02-21T16:54:46;11.70;99.90
8994;DHT22;4532;50.886;4.700;2023-02-21T16:57:13;11.70;99.90
8994;DHT22;4532;50.886;4.700;2023-02-21T16:59:40;11.60;99.90
8994;DHT22;4532;50.886;4.700;2023-02-21T17:02:13;11.60;99.90
8994;DHT22;4532;50.886;4.700;2023-02-21T17:04:45;11.60;99.90
8994;DHT22;4532;50.886;4.700;2023-02-21T17:07:15;11.50;99.90
8994;DHT22;4532;50.886;4.700;2023-02-21T17:09:44;11.50;99.90
8994;DHT22;4532;50.886;4.700;2023-02-21T17:12:16;11.50;99.90
8994;DHT22;4532;50.886;4.700;2023-02-21T17:14:43;11.50;99.90
8994;DHT22;4532;50.886;4.700;2023-02-21T17:17:10;11.40;99.90
8994;DHT22;4532;50.886;4.700;2023-02-21T17:19:38;11.40;99.90
8994;DHT22;4532;50.886;4.700;2023-02-21T17:22:11;11.30;99.90
8994;DHT22;4532;50.886;4.700;2023-02-21T17:24:41;11.30;99.90
8994;DHT22;4532;50.886;4.700;2023-02-21T17:27:11;11.20;99.90
8994;DHT22;4532;50.886;4.700;2023-02-21T17:29:41;11.20;99.90
8994;DHT22;4532;50.886;4.700;2023-02-21T17:32:08;11.10;99.90
8994;DHT22;4532;50.886;4.700;2023-02-21T17:34:40;11.00;99.90
8994;DHT22;4532;50.886;4.700;2023-02-21T17:37:10;11.00;99.90
8994;DHT22;4532;50.886;4.700;2023-02-21T17:39:41;11.00;99.90
8994;DHT22;4532;50.886;4.700;2023-02-21T17:42:11;10.90;99.90
8994;DHT22;4532;50.886;4.700;2023-02-21T17:44:42;10.80;99.90
8994;DHT22;4532;50.886;4.700;2023-02-21T17:47:13;10.80;99.90
8994;DHT22;4532;50.886;4.700;2023-02-21T17:49:42;10.70;99.90
8994;DHT22;4532;50.886;4.700;2023-02-21T17:52:15;10.70;99.90
8994;DHT22;4532;50.886;4.700;2023-02-21T17:54:45;10.60;99.90
8994;DHT22;4532;50.886;4.700;2023-02-21T17:57:13;10.60;99.90
8994;DHT22;4532;50.886;4.700;2023-02-21T17:59:43;10.50;99.90
8994;DHT22;4532;50.886;4.700;2023-02-21T18:02:11;10.50;99.90
8994;DHT22;4532;50.886;4.700;2023-02-21T18:04:41;10.40;99.90
8994;DHT22;4532;50.886;4.700;2023-02-21T18:07:11;10.40;99.90
8994;DHT22;4532;50.886;4.700;2023-02-21T18:09:38;10.30;99.90
8994;DHT22;4532;50.886;4.700;2023-02-21T18:12:07;10.30;99.90
8994;DHT22;4532;50.886;4.700;2023-02-21T18:14:35;10.20;99.90
8994;DHT22;4532;50.886;4.700;2023-02-21T18:17:04;10.20;99.90
8994;DHT22;4532;50.886;4.700;2023-02-21T18:19:31;10.10;99.90
8994;DHT22;4532;50.886;4.700;2023-02-21T18:21:58;10.00;99.90
8994;DHT22;4532;50.886;4.700;2023-02-21T18:24:31;10.00;99.90
8994;DHT22;4532;50.886;4.700;2023-02-21T18:27:00;10.00;99.90
8994;DHT22;4532;50.886;4.700;2023-02-21T18:29:30;9.90;99.90
8994;DHT22;4532;50.886;4.700;2023-02-21T18:31:58;9.90;99.90
8994;DHT22;4532;50.886;4.700;2023-02-21T18:34:27;9.80;99.90
8994;DHT22;4532;50.886;4.700;2023-02-21T18:36:54;9.80;99.90
8994;DHT22;4532;50.886;4.700;2023-02-21T18:39:24;9.70;99.90
8994;DHT22;4532;50.886;4.700;2023-02-21T18:41:51;9.70;99.90
8994;DHT22;4532;50.886;4.700;2023-02-21T18:44:19;9.70;99.90
8994;DHT22;4532;50.886;4.700;2023-02-21T18:46:52;9.70;99.90
8994;DHT22;4532;50.886;4.700;2023-02-21T18:49:21;9.70;99.90
8994;DHT22;4532;50.886;4.700;2023-02-21T18:51:52;9.60;99.90
8994;DHT22;4532;50.886;4.700;2023-02-21T18:54:22;9.60;99.90
8994;DHT22;4532;50.886;4.700;2023-02-21T18:56:51;9.50;99.90
8994;DHT22;4532;50.886;4.700;2023-02-21T18:59:20;9.50;99.90
8994;DHT22;4532;50.886;4.700;2023-02-21T19:01:54;9.50;99.90
8994;DHT22;4532;50.886;4.700;2023-02-21T19:04:24;9.40;99.90
8994;DHT22;4532;50.886;4.700;2023-02-21T19:06:54;9.40;99.90
8994;DHT22;4532;50.886;4.700;2023-02-21T19:09:25;9.40;99.90
8994;DHT22;4532;50.886;4.700;2023-02-21T19:11:55;9.30;99.90
8994;DHT22;4532;50.886;4.700;2023-02-21T19:14:27;9.30;99.90
8994;DHT22;4532;50.886;4.700;2023-02-21T19:16:55;9.30;99.90
8994;DHT22;4532;50.886;4.700;2023-02-21T19:19:24;9.20;99.90
8994;DHT22;4532;50.886;4.700;2023-02-21T19:21:52;9.20;99.90
8994;DHT22;4532;50.886;4.700;2023-02-21T19:24:19;9.10;99.90
8994;DHT22;4532;50.886;4.700;2023-02-21T19:26:49;9.10;99.90
8994;DHT22;4532;50.886;4.700;2023-02-21T19:29:19;9.10;99.90
8994;DHT22;4532;50.886;4.700;2023-02-21T19:31:47;9.00;99.90
8994;DHT22;4532;50.886;4.700;2023-02-21T19:34:17;9.00;99.90
8994;DHT22;4532;50.886;4.700;2023-02-21T19:36:44;9.00;99.90
8994;DHT22;4532;50.886;4.700;2023-02-21T19:39:13;8.90;99.90
8994;DHT22;4532;50.886;4.700;2023-02-21T19:41:44;8.90;99.90
8994;DHT22;4532;50.886;4.700;2023-02-21T19:44:11;8.90;99.90
8994;DHT22;4532;50.886;4.700;2023-02-21T19:46:38;8.80;99.90
8994;DHT22;4532;50.886;4.700;2023-02-21T19:49:06;8.80;99.90